sensor_id;sensor_type;location;lat;lon;timestamp;temperature;humidity
18147;DHT22;9199;48.832;9.182;2023-03-21T00:02:01;10.40;99.90
18147;DHT22;9199;48.832;9.182;2023-03-21T00:04:29;10.40;99.90
18147;DHT22;9199;48.832;9.182;2023-03-21T00:06:57;10.30;99.90
18147;DHT22;9199;48.832;9.182;2023-03-21T00:09:24;10.40;99.90
18147;DHT22;9199;48.832;9.182;2023-03-21T00:11:51;10.40;99.90
18147;DHT22;9199;48.832;9.182;2023-03-21T00:14:18;10.40;99.90
18147;DHT22;9199;48.832;9.182;2023-03-21T00:16:45;10.40;99.90
18147;DHT22;9199;48.832;9.182;2023-03-21T00:19:15;10.30;99.90
18147;DHT22;9199;48.832;9.182;2023-03-21T00:21:43;10.30;99.90
18147;DHT22;9199;48.832;9.182;2023-03-21T00:24:11;10.30;99.90
18147;DHT22;9199;48.832;9.182;2023-03-21T00:26:37;10.30;99.90
18147;DHT22;9199;48.832;9.182;2023-03-21T00:29:04;10.30;99.90
18147;DHT22;9199;48.832;9.182;2023-03-21T00:31:31;10.30;99.90
18147;DHT22;9199;48.832;9.182;2023-03-21T00:33:58;10.20;99.90
18147;DHT22;9199;48.832;9.182;2023-03-21T00:36:25;10.20;99.90
18147;DHT22;9199;48.832;9.182;2023-03-21T00:38:54;10.10;99.90
18147;DHT22;9199;48.832;9.182;2023-03-21T00:41:20;10.10;99.90
18147;DHT22;9199;48.832;9.182;2023-03-21T00:43:47;10.10;99.90
18147;DHT22;9199;48.832;9.182;2023-03-21T00:46:14;10.10;99.90
18147;DHT22;9199;48.832;9.182;2023-03-21T00:48:40;10.10;99.90
18147;DHT22;9199;48.832;9.182;2023-03-21T00:51:11;10.10;99.90
18147;DHT22;9199;48.832;9.182;2023-03-21T00:53:40;10.20;99.90
18147;DHT22;9199;48.832;9.182;2023-03-21T00:56:08;10.20;99.90
18147;DHT22;9199;48.832;9.182;2023-03-21T00:58:35;10.20;99.90
18147;DHT22;9199;48.832;9.182;2023-03-21T01:01:02;10.20;99.90
18147;DHT22;9199;48.832;9.182;2023-03-21T01:03:32;10.10;99.90
18147;DHT22;9199;48.832;9.182;2023-03-21T01:05:59;10.10;99.90
18147;DHT22;9199;48.832;9.182;2023-03-21T01:08:30;10.10;99.90
18147;DHT22;9199;48.832;9.182;2023-03-21T01:11:01;10.10;99.90
18147;DHT22;9199;48.832;9.182;2023-03-21T01:13:29;10.10;99.90
18147;DHT22;9199;48.832;9.182;2023-03-21T01:15:57;10.10;99.90
18147;DHT22;9199;48.832;9.182;2023-03-21T01:18:27;10.00;99.90
18147;DHT22;9199;48.832;9.182;2023-03-21T01:20:55;10.00;99.90
18147;DHT22;9199;48.832;9.182;2023-03-21T01:23:23;10.00;99.90
18147;DHT22;9199;48.832;9.182;2023-03-21T01:25:51;10.00;99.90
18147;DHT22;9199;48.832;9.182;2023-03-21T01:28:18;10.00;99.90
18147;DHT22;9199;48.832;9.182;2023-03-21T01:30:46;10.00;99.90
18147;DHT22;9199;48.832;9.182;2023-03-21T01:33:13;10.00;99.90
18147;DHT22;9199;48.832;9.182;2023-03-21T01:35:41;9.90;99.90
18147;DHT22;9199;48.832;9.182;2023-03-21T01:38:07;9.90;99.90
18147;DHT22;9199;48.832;9.182;2023-03-21T01:40:36;9.90;99.90
18147;DHT22;9199;48.832;9.182;2023-03-21T01:43:03;10.00;99.90
18147;DHT22;9199;48.832;9.182;2023-03-21T01:48:38;10.00;99.90
18147;DHT22;9199;48.832;9.182;2023-03-21T01:51:07;9.90;99.90
18147;DHT22;9199;48.832;9.182;2023-03-21T01:53:35;9.90;99.90
18147;DHT22;9199;48.832;9.182;2023-03-21T01:56:07;10.00;99.90
18147;DHT22;9199;48.832;9.182;2023-03-21T01:58:36;9.90;99.90
18147;DHT22;9199;48.832;9.182;2023-03-21T02:01:04;9.90;99.90
18147;DHT22;9199;48.832;9.182;2023-03-21T02:03:31;9.90;99.90
18147;DHT22;9199;48.832;9.182;2023-03-21T02:06:06;9.90;99.90
18147;DHT22;9199;48.832;9.182;2023-03-21T02:08:35;9.90;99.90
18147;DHT22;9199;48.832;9.182;2023-03-21T02:11:02;9.90;99.90
18147;DHT22;9199;48.832;9.182;2023-03-21T02:13:29;9.80;99.90
18147;DHT22;9199;48.832;9.182;2023-03-21T02:15:58;9.80;99.90
18147;DHT22;9199;48.832;9.182;2023-03-21T02:18:34;9.80;99.90
18147;DHT22;9199;48.832;9.182;2023-03-21T02:27:40;9.80;99.90
18147;DHT22;9199;48.832;9.182;2023-03-21T02:30:34;9.80;99.90
18147;DHT22;9199;48.832;9.182;2023-03-21T02:33:25;9.80;99.90
18147;DHT22;9199;48.832;9.182;2023-03-21T02:36:15;9.80;99.90
18147;DHT22;9199;48.832;9.182;2023-03-21T02:38:50;9.80;99.90
18147;DHT22;9199;48.832;9.182;2023-03-21T02:41:20;9.80;99.90
18147;DHT22;9199;48.832;9.182;2023-03-21T02:43:54;9.80;99.90
18147;DHT22;9199;48.832;9.182;2023-03-21T02:46:27;9.80;99.90
18147;DHT22;9199;48.832;9.182;2023-03-21T02:49:02;9.80;99.90
18147;DHT22;9199;48.832;9.182;2023-03-21T02:51:33;9.80;99.90
18147;DHT22;9199;48.832;9.182;2023-03-21T02:54:06;9.80;99.90
18147;DHT22;9199;48.832;9.182;2023-03-21T02:56:35;9.80;99.90
18147;DHT22;9199;48.832;9.182;2023-03-21T02:59:02;9.70;99.90
18147;DHT22;9199;48.832;9.182;2023-03-21T03:01:29;9.70;99.90
18147;DHT22;9199;48.832;9.182;2023-03-21T03:03:56;9.70;99.90
18147;DHT22;9199;48.832;9.182;2023-03-21T03:06:26;9.70;99.90
18147;DHT22;9199;48.832;9.182;2023-03-21T03:09:11;9.70;99.90
18147;DHT22;9199;48.832;9.182;2023-03-21T03:11:42;9.70;99.90
18147;DHT22;9199;48.832;9.182;2023-03-21T03:14:24;9.60;99.90
18147;DHT22;9199;48.832;9.182;2023-03-21T03:17:02;9.60;99.90
18147;DHT22;9199;48.832;9.182;2023-03-21T03:19:39;9.60;99.90
18147;DHT22;9199;48.832;9.182;2023-03-21T03:22:11;9.60;99.90
18147;DHT22;9199;48.832;9.182;2023-03-21T03:24:44;9.60;99.90
18147;DHT22;9199;48.832;9.182;2023-03-21T03:27:15;9.50;99.90
18147;DHT22;9199;48.832;9.182;2023-03-21T03:29:45;9.50;99.90
18147;DHT22;9199;48.832;9.182;2023-03-21T03:32:16;9.50;99.90
18147;DHT22;9199;48.832;9.182;2023-03-21T03:34:45;9.50;99.90
18147;DHT22;9199;48.832;9.182;2023-03-21T03:37:22;9.50;99.90
18147;DHT22;9199;48.832;9.182;2023-03-21T03:39:56;9.50;99.90
18147;DHT22;9199;48.832;9.182;2023-03-21T03:42:26;9.50;99.90
18147;DHT22;9199;48.832;9.182;2023-03-21T03:44:54;9.50;99.90
18147;DHT22;9199;48.832;9.182;2023-03-21T03:47:23;9.40;99.90
18147;DHT22;9199;48.832;9.182;2023-03-21T03:50:02;9.50;99.90
18147;DHT22;9199;48.832;9.182;2023-03-21T03:52:36;9.50;99.90
18147;DHT22;9199;48.832;9.182;2023-03-21T03:55:06;9.40;99.90
18147;DHT22;9199;48.832;9.182;2023-03-21T03:57:35;9.40;99.90
18147;DHT22;9199;48.832;9.182;2023-03-21T04:00:02;9.40;99.90
18147;DHT22;9199;48.832;9.182;2023-03-21T04:02:36;9.40;99.90
18147;DHT22;9199;48.832;9.182;2023-03-21T04:05:03;9.40;99.90
18147;DHT22;9199;48.832;9.182;2023-03-21T04:07:30;9.30;99.90
18147;DHT22;9199;48.832;9.182;2023-03-21T04:09:57;9.30;99.90
18147;DHT22;9199;48.832;9.182;2023-03-21T04:12:25;9.30;99.90
18147;DHT22;9199;48.832;9.182;2023-03-21T04:14:51;9.20;99.90
18147;DHT22;9199;48.832;9.182;2023-03-21T04:17:18;9.20;99.90
18147;DHT22;9199;48.832;9.182;2023-03-21T04:19:45;9.20;99.90
18147;DHT22;9199;48.832;9.182;2023-03-21T04:22:12;9.20;99.90
18147;DHT22;9199;48.832;9.182;2023-03-21T04:24:39;9.20;99.90
18147;DHT22;9199;48.832;9.182;2023-03-21T04:27:07;9.20;99.90
18147;DHT22;9199;48.832;9.182;2023-03-21T04:29:35;9.20;99.90
18147;DHT22;9199;48.832;9.182;2023-03-21T04:32:01;9.10;99.90
18147;DHT22;9199;48.832;9.182;2023-03-21T04:34:28;9.10;99.90
18147;DHT22;9199;48.832;9.182;2023-03-21T04:36:55;9.00;99.90
18147;DHT22;9199;48.832;9.182;2023-03-21T04:39:22;8.90;99.90
18147;DHT22;9199;48.832;9.182;2023-03-21T04:41:49;8.90;99.90
18147;DHT22;9199;48.832;9.182;2023-03-21T04:44:16;8.80;99.90
18147;DHT22;9199;48.832;9.182;2023-03-21T04:46:44;8.80;99.90
18147;DHT22;9199;48.832;9.182;2023-03-21T04:49:11;8.70;99.90
18147;DHT22;9199;48.832;9.182;2023-03-21T04:51:38;8.70;99.90
18147;DHT22;9199;48.832;9.182;2023-03-21T04:54:05;8.70;99.90
18147;DHT22;9199;48.832;9.182;2023-03-21T04:56:32;8.60;99.90
18147;DHT22;9199;48.832;9.182;2023-03-21T04:59:05;8.60;99.90
18147;DHT22;9199;48.832;9.182;2023-03-21T05:01:32;8.50;99.90
18147;DHT22;9199;48.832;9.182;2023-03-21T05:04:01;8.50;99.90
18147;DHT22;9199;48.832;9.182;2023-03-21T05:06:28;8.40;99.90
18147;DHT22;9199;48.832;9.182;2023-03-21T05:08:56;8.50;99.90
18147;DHT22;9199;48.832;9.182;2023-03-21T05:11:24;8.50;99.90
18147;DHT22;9199;48.832;9.182;2023-03-21T05:13:51;8.50;99.90
18147;DHT22;9199;48.832;9.182;2023-03-21T05:16:17;8.40;99.90
18147;DHT22;9199;48.832;9.182;2023-03-21T05:18:44;8.50;99.90
18147;DHT22;9199;48.832;9.182;2023-03-21T05:21:16;8.50;99.90
18147;DHT22;9199;48.832;9.182;2023-03-21T05:23:43;8.50;99.90
18147;DHT22;9199;48.832;9.182;2023-03-21T05:26:10;8.50;99.90
18147;DHT22;9199;48.832;9.182;2023-03-21T05:28:36;8.50;99.90
18147;DHT22;9199;48.832;9.182;2023-03-21T05:31:05;8.50;99.90
18147;DHT22;9199;48.832;9.182;2023-03-21T05:33:32;8.50;99.90
18147;DHT22;9199;48.832;9.182;2023-03-21T05:35:59;8.50;99.90
18147;DHT22;9199;48.832;9.182;2023-03-21T05:38:27;8.60;99.90
18147;DHT22;9199;48.832;9.182;2023-03-21T05:40:53;8.60;99.90
18147;DHT22;9199;48.832;9.182;2023-03-21T05:43:20;8.60;99.90
18147;DHT22;9199;48.832;9.182;2023-03-21T05:45:47;8.70;99.90
18147;DHT22;9199;48.832;9.182;2023-03-21T05:48:14;8.70;99.90
18147;DHT22;9199;48.832;9.182;2023-03-21T05:50:40;8.80;99.90
18147;DHT22;9199;48.832;9.182;2023-03-21T05:53:07;8.80;99.90
18147;DHT22;9199;48.832;9.182;2023-03-21T05:55:36;8.90;99.90
18147;DHT22;9199;48.832;9.182;2023-03-21T05:58:02;9.00;99.90
18147;DHT22;9199;48.832;9.182;2023-03-21T06:00:29;9.10;99.90
18147;DHT22;9199;48.832;9.182;2023-03-21T06:02:56;9.30;99.90
18147;DHT22;9199;48.832;9.182;2023-03-21T06:05:23;9.50;99.90
18147;DHT22;9199;48.832;9.182;2023-03-21T06:07:49;10.10;99.90
18147;DHT22;9199;48.832;9.182;2023-03-21T06:10:16;10.80;99.90
18147;DHT22;9199;48.832;9.182;2023-03-21T06:12:44;11.30;99.90
18147;DHT22;9199;48.832;9.182;2023-03-21T06:15:11;11.50;99.90
18147;DHT22;9199;48.832;9.182;2023-03-21T06:17:38;11.20;99.90
18147;DHT22;9199;48.832;9.182;2023-03-21T06:20:06;11.00;99.90
18147;DHT22;9199;48.832;9.182;2023-03-21T06:22:34;10.60;99.90
18147;DHT22;9199;48.832;9.182;2023-03-21T06:25:01;10.40;99.90
18147;DHT22;9199;48.832;9.182;2023-03-21T06:27:28;10.30;99.90
18147;DHT22;9199;48.832;9.182;2023-03-21T06:29:56;10.20;99.90
18147;DHT22;9199;48.832;9.182;2023-03-21T06:32:24;10.20;99.90
18147;DHT22;9199;48.832;9.182;2023-03-21T06:34:51;10.10;99.90
18147;DHT22;9199;48.832;9.182;2023-03-21T06:37:18;10.10;99.90
18147;DHT22;9199;48.832;9.182;2023-03-21T06:39:45;10.10;99.90
18147;DHT22;9199;48.832;9.182;2023-03-21T06:42:12;10.10;99.90
18147;DHT22;9199;48.832;9.182;2023-03-21T06:44:39;10.20;99.90
18147;DHT22;9199;48.832;9.182;2023-03-21T06:47:08;10.20;99.90
18147;DHT22;9199;48.832;9.182;2023-03-21T06:49:34;10.20;99.90
18147;DHT22;9199;48.832;9.182;2023-03-21T06:52:01;10.20;99.90
18147;DHT22;9199;48.832;9.182;2023-03-21T06:54:28;10.30;99.90
18147;DHT22;9199;48.832;9.182;2023-03-21T06:56:55;10.30;99.90
18147;DHT22;9199;48.832;9.182;2023-03-21T06:59:22;10.40;99.90
18147;DHT22;9199;48.832;9.182;2023-03-21T07:01:48;10.50;99.90
18147;DHT22;9199;48.832;9.182;2023-03-21T07:04:16;10.70;99.90
18147;DHT22;9199;48.832;9.182;2023-03-21T07:06:43;10.80;99.90
18147;DHT22;9199;48.832;9.182;2023-03-21T07:09:10;11.00;99.90
18147;DHT22;9199;48.832;9.182;2023-03-21T07:11:37;11.10;99.90
18147;DHT22;9199;48.832;9.182;2023-03-21T07:14:04;11.30;99.90
18147;DHT22;9199;48.832;9.182;2023-03-21T07:16:31;11.60;99.90
18147;DHT22;9199;48.832;9.182;2023-03-21T07:18:58;12.10;99.90
18147;DHT22;9199;48.832;9.182;2023-03-21T07:21:26;12.50;99.90
18147;DHT22;9199;48.832;9.182;2023-03-21T07:23:53;12.70;99.90
18147;DHT22;9199;48.832;9.182;2023-03-21T07:26:19;12.80;99.90
18147;DHT22;9199;48.832;9.182;2023-03-21T07:28:47;13.10;99.90
18147;DHT22;9199;48.832;9.182;2023-03-21T07:31:15;13.40;99.90
18147;DHT22;9199;48.832;9.182;2023-03-21T07:33:42;13.80;99.90
18147;DHT22;9199;48.832;9.182;2023-03-21T07:36:09;14.20;99.90
18147;DHT22;9199;48.832;9.182;2023-03-21T07:38:39;14.60;99.90
18147;DHT22;9199;48.832;9.182;2023-03-21T07:41:06;15.10;99.90
18147;DHT22;9199;48.832;9.182;2023-03-21T07:43:33;15.50;99.90
18147;DHT22;9199;48.832;9.182;2023-03-21T07:46:00;15.70;99.90
18147;DHT22;9199;48.832;9.182;2023-03-21T07:48:27;15.90;99.20
18147;DHT22;9199;48.832;9.182;2023-03-21T07:50:54;16.20;97.80
18147;DHT22;9199;48.832;9.182;2023-03-21T07:53:22;16.40;97.50
18147;DHT22;9199;48.832;9.182;2023-03-21T07:55:51;16.50;97.50
18147;DHT22;9199;48.832;9.182;2023-03-21T07:58:20;16.80;96.50
18147;DHT22;9199;48.832;9.182;2023-03-21T08:00:46;16.70;96.50
18147;DHT22;9199;48.832;9.182;2023-03-21T08:03:13;16.50;97.30
18147;DHT22;9199;48.832;9.182;2023-03-21T08:05:40;16.40;96.90
18147;DHT22;9199;48.832;9.182;2023-03-21T08:08:08;16.70;96.30
18147;DHT22;9199;48.832;9.182;2023-03-21T08:10:35;16.70;95.70
18147;DHT22;9199;48.832;9.182;2023-03-21T08:13:03;17.00;95.60
18147;DHT22;9199;48.832;9.182;2023-03-21T08:15:30;17.30;95.40
18147;DHT22;9199;48.832;9.182;2023-03-21T08:17:57;17.80;95.30
18147;DHT22;9199;48.832;9.182;2023-03-21T08:20:24;18.10;94.50
18147;DHT22;9199;48.832;9.182;2023-03-21T08:22:51;18.20;94.30
18147;DHT22;9199;48.832;9.182;2023-03-21T08:25:19;18.50;93.50
18147;DHT22;9199;48.832;9.182;2023-03-21T08:27:47;18.70;93.20
18147;DHT22;9199;48.832;9.182;2023-03-21T08:30:18;18.60;93.20
18147;DHT22;9199;48.832;9.182;2023-03-21T08:32:45;18.80;92.80
18147;DHT22;9199;48.832;9.182;2023-03-21T08:35:14;18.80;92.00
18147;DHT22;9199;48.832;9.182;2023-03-21T08:37:41;18.80;91.20
18147;DHT22;9199;48.832;9.182;2023-03-21T08:40:11;19.30;90.40
18147;DHT22;9199;48.832;9.182;2023-03-21T08:42:39;19.60;89.40
18147;DHT22;9199;48.832;9.182;2023-03-21T08:45:08;20.20;84.50
18147;DHT22;9199;48.832;9.182;2023-03-21T08:47:36;20.60;82.60
18147;DHT22;9199;48.832;9.182;2023-03-21T08:50:05;20.80;81.10
18147;DHT22;9199;48.832;9.182;2023-03-21T08:52:32;21.10;78.10
18147;DHT22;9199;48.832;9.182;2023-03-21T08:54:59;21.30;77.50
18147;DHT22;9199;48.832;9.182;2023-03-21T08:57:27;21.60;76.50
18147;DHT22;9199;48.832;9.182;2023-03-21T08:59:54;21.90;74.00
18147;DHT22;9199;48.832;9.182;2023-03-21T09:02:20;22.20;73.20
18147;DHT22;9199;48.832;9.182;2023-03-21T09:04:48;22.10;72.50
18147;DHT22;9199;48.832;9.182;2023-03-21T09:07:17;22.10;70.20
18147;DHT22;9199;48.832;9.182;2023-03-21T09:09:44;22.10;71.20
18147;DHT22;9199;48.832;9.182;2023-03-21T09:12:11;22.00;72.20
18147;DHT22;9199;48.832;9.182;2023-03-21T09:14:38;21.90;69.70
18147;DHT22;9199;48.832;9.182;2023-03-21T09:17:05;21.80;70.20
18147;DHT22;9199;48.832;9.182;2023-03-21T09:19:32;21.80;68.20
18147;DHT22;9199;48.832;9.182;2023-03-21T09:22:00;21.60;68.60
18147;DHT22;9199;48.832;9.182;2023-03-21T09:24:29;21.30;67.90
18147;DHT22;9199;48.832;9.182;2023-03-21T09:26:56;20.80;68.20
18147;DHT22;9199;48.832;9.182;2023-03-21T09:29:24;20.50;68.70
18147;DHT22;9199;48.832;9.182;2023-03-21T09:31:50;20.50;69.30
18147;DHT22;9199;48.832;9.182;2023-03-21T09:34:18;21.00;68.50
18147;DHT22;9199;48.832;9.182;2023-03-21T09:36:45;21.80;66.30
18147;DHT22;9199;48.832;9.182;2023-03-21T09:39:17;22.50;64.70
18147;DHT22;9199;48.832;9.182;2023-03-21T09:42:07;22.50;64.70
18147;DHT22;9199;48.832;9.182;2023-03-21T09:44:44;22.90;63.40
18147;DHT22;9199;48.832;9.182;2023-03-21T09:47:17;23.60;60.40
18147;DHT22;9199;48.832;9.182;2023-03-21T09:49:49;23.50;62.70
18147;DHT22;9199;48.832;9.182;2023-03-21T09:52:21;23.70;58.90
18147;DHT22;9199;48.832;9.182;2023-03-21T09:54:50;23.30;61.40
18147;DHT22;9199;48.832;9.182;2023-03-21T09:57:26;23.20;59.10
18147;DHT22;9199;48.832;9.182;2023-03-21T09:59:55;23.50;59.00
18147;DHT22;9199;48.832;9.182;2023-03-21T10:02:35;23.80;56.70
18147;DHT22;9199;48.832;9.182;2023-03-21T10:05:11;23.50;55.80
18147;DHT22;9199;48.832;9.182;2023-03-21T10:07:41;23.00;55.80
18147;DHT22;9199;48.832;9.182;2023-03-21T10:10:18;22.40;56.50
18147;DHT22;9199;48.832;9.182;2023-03-21T10:12:46;22.00;55.70
18147;DHT22;9199;48.832;9.182;2023-03-21T10:15:16;21.70;56.70
18147;DHT22;9199;48.832;9.182;2023-03-21T10:17:48;21.60;56.20
18147;DHT22;9199;48.832;9.182;2023-03-21T10:20:21;21.60;56.40
18147;DHT22;9199;48.832;9.182;2023-03-21T10:22:50;21.50;56.30
18147;DHT22;9199;48.832;9.182;2023-03-21T10:25:20;21.40;56.20
18147;DHT22;9199;48.832;9.182;2023-03-21T10:27:49;21.70;57.00
18147;DHT22;9199;48.832;9.182;2023-03-21T10:30:23;22.00;56.30
18147;DHT22;9199;48.832;9.182;2023-03-21T10:32:51;22.80;56.10
18147;DHT22;9199;48.832;9.182;2023-03-21T10:35:18;23.80;53.60
18147;DHT22;9199;48.832;9.182;2023-03-21T10:37:45;24.30;52.30
18147;DHT22;9199;48.832;9.182;2023-03-21T10:40:14;24.70;50.80
18147;DHT22;9199;48.832;9.182;2023-03-21T10:42:43;25.00;50.90
18147;DHT22;9199;48.832;9.182;2023-03-21T10:45:15;25.50;49.10
18147;DHT22;9199;48.832;9.182;2023-03-21T10:47:46;25.30;48.70
18147;DHT22;9199;48.832;9.182;2023-03-21T10:50:16;24.80;49.40
18147;DHT22;9199;48.832;9.182;2023-03-21T10:52:46;24.60;49.10
18147;DHT22;9199;48.832;9.182;2023-03-21T10:55:21;24.50;48.80
18147;DHT22;9199;48.832;9.182;2023-03-21T10:57:55;24.60;50.30
18147;DHT22;9199;48.832;9.182;2023-03-21T11:00:26;24.70;51.50
18147;DHT22;9199;48.832;9.182;2023-03-21T11:02:54;24.40;50.40
18147;DHT22;9199;48.832;9.182;2023-03-21T11:05:23;24.10;50.20
18147;DHT22;9199;48.832;9.182;2023-03-21T11:07:58;23.80;50.40
18147;DHT22;9199;48.832;9.182;2023-03-21T11:10:28;23.20;50.60
18147;DHT22;9199;48.832;9.182;2023-03-21T11:13:00;23.00;52.60
18147;DHT22;9199;48.832;9.182;2023-03-21T11:15:29;22.90;53.20
18147;DHT22;9199;48.832;9.182;2023-03-21T11:17:57;22.60;55.00
18147;DHT22;9199;48.832;9.182;2023-03-21T11:20:24;22.50;56.50
18147;DHT22;9199;48.832;9.182;2023-03-21T11:22:54;22.20;55.70
18147;DHT22;9199;48.832;9.182;2023-03-21T11:25:26;21.90;57.30
18147;DHT22;9199;48.832;9.182;2023-03-21T11:28:05;21.60;57.60
18147;DHT22;9199;48.832;9.182;2023-03-21T11:30:32;21.50;58.80
18147;DHT22;9199;48.832;9.182;2023-03-21T11:33:01;21.30;58.60
18147;DHT22;9199;48.832;9.182;2023-03-21T11:35:33;21.00;59.00
18147;DHT22;9199;48.832;9.182;2023-03-21T11:38:00;20.80;59.60
18147;DHT22;9199;48.832;9.182;2023-03-21T11:40:28;20.60;60.10
18147;DHT22;9199;48.832;9.182;2023-03-21T11:42:56;20.50;59.50
18147;DHT22;9199;48.832;9.182;2023-03-21T11:45:26;20.60;64.20
18147;DHT22;9199;48.832;9.182;2023-03-21T11:47:55;20.60;60.20
18147;DHT22;9199;48.832;9.182;2023-03-21T11:50:30;20.30;62.90
18147;DHT22;9199;48.832;9.182;2023-03-21T11:53:09;20.30;63.70
18147;DHT22;9199;48.832;9.182;2023-03-21T11:55:48;20.50;62.00
18147;DHT22;9199;48.832;9.182;2023-03-21T11:58:30;20.60;62.50
18147;DHT22;9199;48.832;9.182;2023-03-21T12:01:03;20.30;63.90
18147;DHT22;9199;48.832;9.182;2023-03-21T12:03:45;20.20;63.60
18147;DHT22;9199;48.832;9.182;2023-03-21T12:06:18;19.90;62.20
18147;DHT22;9199;48.832;9.182;2023-03-21T12:08:55;19.40;65.00
18147;DHT22;9199;48.832;9.182;2023-03-21T12:11:27;19.30;64.20
18147;DHT22;9199;48.832;9.182;2023-03-21T12:14:02;19.30;65.80
18147;DHT22;9199;48.832;9.182;2023-03-21T12:16:42;19.60;64.20
18147;DHT22;9199;48.832;9.182;2023-03-21T12:19:35;19.90;63.50
18147;DHT22;9199;48.832;9.182;2023-03-21T12:22:09;20.10;63.90
18147;DHT22;9199;48.832;9.182;2023-03-21T12:24:41;20.20;63.90
18147;DHT22;9199;48.832;9.182;2023-03-21T12:27:22;20.40;62.50
18147;DHT22;9199;48.832;9.182;2023-03-21T12:30:14;19.80;62.90
18147;DHT22;9199;48.832;9.182;2023-03-21T12:32:53;19.20;62.60
18147;DHT22;9199;48.832;9.182;2023-03-21T12:35:36;18.90;62.20
18147;DHT22;9199;48.832;9.182;2023-03-21T12:38:14;18.90;62.50
18147;DHT22;9199;48.832;9.182;2023-03-21T12:40:52;18.90;64.30
18147;DHT22;9199;48.832;9.182;2023-03-21T12:43:27;18.90;62.90
18147;DHT22;9199;48.832;9.182;2023-03-21T12:45:58;19.10;64.30
18147;DHT22;9199;48.832;9.182;2023-03-21T12:48:35;19.10;62.60
18147;DHT22;9199;48.832;9.182;2023-03-21T12:51:07;19.10;62.40
18147;DHT22;9199;48.832;9.182;2023-03-21T12:53:47;19.20;64.30
18147;DHT22;9199;48.832;9.182;2023-03-21T12:56:19;19.50;63.20
18147;DHT22;9199;48.832;9.182;2023-03-21T12:58:53;19.40;61.30
18147;DHT22;9199;48.832;9.182;2023-03-21T13:01:21;19.60;62.00
18147;DHT22;9199;48.832;9.182;2023-03-21T13:04:03;19.80;61.70
18147;DHT22;9199;48.832;9.182;2023-03-21T13:06:32;20.30;60.80
18147;DHT22;9199;48.832;9.182;2023-03-21T13:09:05;21.20;59.70
18147;DHT22;9199;48.832;9.182;2023-03-21T13:11:36;21.50;58.40
18147;DHT22;9199;48.832;9.182;2023-03-21T13:14:05;21.40;58.70
18147;DHT22;9199;48.832;9.182;2023-03-21T13:16:35;21.60;56.40
18147;DHT22;9199;48.832;9.182;2023-03-21T13:19:13;21.60;57.40
18147;DHT22;9199;48.832;9.182;2023-03-21T13:21:48;21.40;57.90
18147;DHT22;9199;48.832;9.182;2023-03-21T13:24:24;20.80;58.20
18147;DHT22;9199;48.832;9.182;2023-03-21T13:26:57;20.10;59.90
18147;DHT22;9199;48.832;9.182;2023-03-21T13:29:27;19.90;60.40
18147;DHT22;9199;48.832;9.182;2023-03-21T13:32:03;19.60;59.70
18147;DHT22;9199;48.832;9.182;2023-03-21T13:34:33;19.50;61.10
18147;DHT22;9199;48.832;9.182;2023-03-21T13:37:00;19.20;61.50
18147;DHT22;9199;48.832;9.182;2023-03-21T13:39:28;19.00;62.20
18147;DHT22;9199;48.832;9.182;2023-03-21T13:42:02;18.80;62.50
18147;DHT22;9199;48.832;9.182;2023-03-21T13:44:31;18.80;64.30
18147;DHT22;9199;48.832;9.182;2023-03-21T13:47:03;18.80;62.90
18147;DHT22;9199;48.832;9.182;2023-03-21T13:49:34;18.70;62.80
18147;DHT22;9199;48.832;9.182;2023-03-21T13:52:02;18.40;63.80
18147;DHT22;9199;48.832;9.182;2023-03-21T13:54:50;18.10;63.30
18147;DHT22;9199;48.832;9.182;2023-03-21T13:57:34;18.10;65.20
18147;DHT22;9199;48.832;9.182;2023-03-21T14:00:30;18.20;64.50
18147;DHT22;9199;48.832;9.182;2023-03-21T14:03:04;18.30;64.20
18147;DHT22;9199;48.832;9.182;2023-03-21T14:05:33;18.40;65.30
18147;DHT22;9199;48.832;9.182;2023-03-21T14:08:05;18.30;64.30
18147;DHT22;9199;48.832;9.182;2023-03-21T14:10:34;18.50;64.00
18147;DHT22;9199;48.832;9.182;2023-03-21T14:13:02;18.60;64.10
18147;DHT22;9199;48.832;9.182;2023-03-21T14:15:37;18.50;64.20
18147;DHT22;9199;48.832;9.182;2023-03-21T14:18:05;18.30;65.40
18147;DHT22;9199;48.832;9.182;2023-03-21T14:20:35;18.20;65.40
18147;DHT22;9199;48.832;9.182;2023-03-21T14:23:03;18.10;65.10
18147;DHT22;9199;48.832;9.182;2023-03-21T14:25:32;18.10;66.80
18147;DHT22;9199;48.832;9.182;2023-03-21T14:28:02;18.30;65.60
18147;DHT22;9199;48.832;9.182;2023-03-21T14:30:33;18.70;64.20
18147;DHT22;9199;48.832;9.182;2023-03-21T14:33:07;18.90;65.30
18147;DHT22;9199;48.832;9.182;2023-03-21T14:35:39;18.80;65.20
18147;DHT22;9199;48.832;9.182;2023-03-21T14:38:08;18.70;65.20
18147;DHT22;9199;48.832;9.182;2023-03-21T14:40:46;18.70;65.50
18147;DHT22;9199;48.832;9.182;2023-03-21T14:43:13;18.80;65.50
18147;DHT22;9199;48.832;9.182;2023-03-21T14:45:40;18.70;63.90
18147;DHT22;9199;48.832;9.182;2023-03-21T14:48:11;18.80;64.40
18147;DHT22;9199;48.832;9.182;2023-03-21T14:50:43;19.10;64.00
18147;DHT22;9199;48.832;9.182;2023-03-21T14:53:15;19.30;63.40
18147;DHT22;9199;48.832;9.182;2023-03-21T14:55:44;19.30;62.90
18147;DHT22;9199;48.832;9.182;2023-03-21T14:58:13;19.30;63.30
18147;DHT22;9199;48.832;9.182;2023-03-21T15:00:41;19.20;63.80
18147;DHT22;9199;48.832;9.182;2023-03-21T15:03:10;19.00;62.70
18147;DHT22;9199;48.832;9.182;2023-03-21T15:05:40;19.00;63.40
18147;DHT22;9199;48.832;9.182;2023-03-21T15:08:11;19.00;66.70
18147;DHT22;9199;48.832;9.182;2023-03-21T15:10:39;18.90;65.90
18147;DHT22;9199;48.832;9.182;2023-03-21T15:13:14;18.70;67.70
18147;DHT22;9199;48.832;9.182;2023-03-21T15:15:41;18.60;68.00
18147;DHT22;9199;48.832;9.182;2023-03-21T15:18:13;18.30;67.60
18147;DHT22;9199;48.832;9.182;2023-03-21T15:20:45;18.30;67.90
18147;DHT22;9199;48.832;9.182;2023-03-21T15:23:17;18.60;67.90
18147;DHT22;9199;48.832;9.182;2023-03-21T15:25:51;19.00;67.10
18147;DHT22;9199;48.832;9.182;2023-03-21T15:28:18;19.40;66.80
18147;DHT22;9199;48.832;9.182;2023-03-21T15:30:49;19.20;66.60
18147;DHT22;9199;48.832;9.182;2023-03-21T15:33:17;18.90;67.40
18147;DHT22;9199;48.832;9.182;2023-03-21T15:35:50;18.70;68.20
18147;DHT22;9199;48.832;9.182;2023-03-21T15:38:23;18.70;68.70
18147;DHT22;9199;48.832;9.182;2023-03-21T15:41:15;18.70;68.50
18147;DHT22;9199;48.832;9.182;2023-03-21T15:43:43;18.50;69.10
18147;DHT22;9199;48.832;9.182;2023-03-21T15:46:15;18.40;70.90
18147;DHT22;9199;48.832;9.182;2023-03-21T15:48:42;18.20;70.60
18147;DHT22;9199;48.832;9.182;2023-03-21T15:51:18;17.80;71.10
18147;DHT22;9199;48.832;9.182;2023-03-21T15:53:47;17.50;72.80
18147;DHT22;9199;48.832;9.182;2023-03-21T15:56:14;17.30;72.90
18147;DHT22;9199;48.832;9.182;2023-03-21T15:58:44;17.30;72.80
18147;DHT22;9199;48.832;9.182;2023-03-21T16:01:15;17.10;73.60
18147;DHT22;9199;48.832;9.182;2023-03-21T16:03:43;17.00;73.80
18147;DHT22;9199;48.832;9.182;2023-03-21T16:06:18;16.70;74.40
18147;DHT22;9199;48.832;9.182;2023-03-21T16:08:48;16.50;75.10
18147;DHT22;9199;48.832;9.182;2023-03-21T16:11:17;16.40;75.10
18147;DHT22;9199;48.832;9.182;2023-03-21T16:13:44;16.30;76.00
18147;DHT22;9199;48.832;9.182;2023-03-21T16:16:16;16.20;76.10
18147;DHT22;9199;48.832;9.182;2023-03-21T16:18:43;16.20;76.50